Goddard, Kansas
Current Conditions -  °F | °C
As of 5:53 AM on Sunday 23 Nov 2014 (Local Time) from KICT Reporting Station
Overcast Overcast  
Wind Chill: 55°   Ceiling: 1200
Heat Index: 55°   Visibility: 10mi
Dew Point: 51°   Wind: 18mph
Humidity: 86%   Direction: 160°SSE
Pressure: 29.44"   Gusts: NA
Location:  37.66°N, 97.58°W
Report Text: KICT 231153Z 16016KT 10SM BKN012 OVC020 13/11 A2944 RMK AO2 SLP965 60000 T01280106 10128 20128 56020
Loading
Personal Weather Stations






























Interactive Weather Map New forecast layout! Learn more

10-Day Weather Forecast

Advertisements
Track Severe Weather on mobile